Nice, CA (95464)

12:04 PM PDT on April 21, 2015 (GMT -0700)
Upper Lake | | Change Station
CLOSE
Current Station
Personal Weather Station
Location: Upper Lake, CA
Elevation: 1345 ft
Nearby Weather Stations

Elev 1345 ft 39.17 °N, 122.92 °W | Updated 1 second ago

Partly Cloudy
Partly Cloudy
67.3 °F
Feels Like 67.3 °F
N
1.6
Wind Variable Wind from SSW
Gusts 4.7 mph

Today
High -- | Low -- °F
--% Chance of Precip.
Yesterday
High -- | Low -- °F
Precip. -- in
6:26 AM 7:54 PM
Waxing Crescent, 12% visible
Pressure 29.83 in
Visibility 10.0 miles
Clouds Clear
Dew Point 54 °F
Humidity 63%
Rainfall 0.00 in
Snow Depth Not available.
UV 9 out of 12
Pollen 8.70 out of 12
Air Quality Not available.
Flu Activity Sporadic
METAR KUKI 211856Z AUTO VRB03KT 10SM CLR 17/11 A2984 RMK AO2 SLP100 T01720111

More Conditions Fewer Conditions

Pressure 29.83 in
Visibility 10.0 miles
Clouds Clear
Dew Point 54 °F
Humidity 63%
Rainfall 0.00 in
Snow Depth Not available.
UV 9 out of 12
Pollen 8.70 out of 12
Air Quality Not available.
Flu Activity Sporadic
METAR KUKI 211856Z AUTO VRB03KT 10SM CLR 17/11 A2984 RMK AO2 SLP100 T01720111

More Conditions Fewer Conditions

10-Day Weather Forecast

Almanac

Astronomy

Apr. 21, 2015 Rise Set
Actual Time
Civil Twilight
Nautical Twilight
Astronomical Twilight
Moon
Length of Visible Light
Length of Day
Tomorrow will be .
, % of the Moon is Illuminated

Today's Extremes

State Highs State Lows

Community

WunderPhotos

Upload Photos

1,815,489 photos uploaded!

WunderBlogs® & News

Nearby

Air Quality

  Air Quality AQ Index Pollutant
Not available.

Snow Depth

Station Depth Elevation

Earthquake Activity

City Distance Mag. Time & Date
Minimum magnitude displayed is 2.5.

Coastal Water Temperatures

Place Temperature

Stations

Nearby Weather Stations

Station Location Temp. Windchill Dew Point Humidity Wind Precip. Elev Updated Type